Time;durP1;ratioP1;P1;durP2;ratioP2;P2;SDS_P1;SDS_P2;PMS_P1;PMS_P2;Temp;Humidity;BMP_temperature;BMP_pressure;BME280_temperature;BME280_humidity;BME280_pressure;Samples;Min_cycle;Max_cycle;Signal;HPM_P1;HPM_P2
2023/08/15 00:00:14;;;;;;;8.20;3.35;;;;;;;25.33;90.53;101264.97;5026631;27;97997;-65
2023/08/15 00:02:41;;;;;;;10.70;3.50;;;;;;;25.46;90.04;101227.72;5024848;27;97552;-64
2023/08/15 00:05:08;;;;;;;7.93;3.53;;;;;;;25.74;87.60;101188.19;5024832;27;100670;-64
2023/08/15 00:07:34;;;;;;;8.02;3.33;;;;;;;26.23;84.78;101172.78;5024612;27;98979;-65
2023/08/15 00:10:02;;;;;;;6.38;2.83;;;;;;;26.44;83.06;101152.69;5027480;27;100300;-64
2023/08/15 00:12:28;;;;;;;7.43;3.33;;;;;;;26.75;81.09;101158.69;5024676;27;97068;-64
2023/08/15 00:14:56;;;;;;;5.95;3.08;;;;;;;26.90;80.60;101168.09;5024729;27;100856;-64
2023/08/15 00:17:23;;;;;;;7.15;2.55;;;;;;;26.98;79.83;101176.31;5020121;27;100022;-64
2023/08/15 00:19:49;;;;;;;7.35;2.92;;;;;;;27.08;79.34;101180.84;5023761;27;96873;-64
2023/08/15 00:22:17;;;;;;;7.13;3.97;;;;;;;27.26;78.65;101169.03;5020151;27;99251;-64
2023/08/15 00:24:43;;;;;;;7.32;3.78;;;;;;;27.24;78.39;101160.19;5027702;27;100361;-65
2023/08/15 00:27:11;;;;;;;6.07;2.90;;;;;;;27.05;79.93;101143.16;5022839;27;99135;-64
2023/08/15 00:29:37;;;;;;;9.93;3.33;;;;;;;27.15;78.74;101123.13;5027304;27;96818;-64
2023/08/15 00:32:04;;;;;;;7.35;3.63;;;;;;;26.98;80.04;101137.47;5026663;27;97201;-64
2023/08/15 00:34:30;;;;;;;8.13;3.90;;;;;;;27.02;80.12;101147.03;5025055;27;99051;-64
2023/08/15 00:36:57;;;;;;;8.27;3.25;;;;;;;26.80;80.15;101158.25;5023318;27;98788;-64
2023/08/15 00:39:23;;;;;;;9.02;3.90;;;;;;;26.75;82.55;101191.22;5020654;27;98570;-64
2023/08/15 00:41:49;;;;;;;6.35;2.70;;;;;;;26.00;85.82;101251.59;5027121;27;96823;-64
2023/08/15 00:44:17;;;;;;;3.25;2.03;;;;;;;25.74;85.84;101247.72;5030560;27;99396;-65
2023/08/15 00:46:44;;;;;;;5.90;1.55;;;;;;;25.52;85.84;101240.69;5030839;27;99136;-64
2023/08/15 00:49:11;;;;;;;5.47;1.85;;;;;;;25.61;84.84;101207.41;5026334;27;96843;-65
2023/08/15 00:51:38;;;;;;;4.25;1.45;;;;;;;25.79;84.50;101192.19;5025923;27;96972;-64
2023/08/15 00:54:05;;;;;;;3.17;1.67;;;;;;;26.12;82.00;101155.69;5028619;27;98980;-64
2023/08/15 00:56:31;;;;;;;2.00;1.58;;;;;;;26.19;81.92;101161.38;5028741;27;98094;-64
2023/08/15 00:58:58;;;;;;;3.60;1.70;;;;;;;26.13;82.83;101157.38;5020715;27;97047;-64
2023/08/15 01:01:26;;;;;;;4.88;1.75;;;;;;;25.85;84.56;101165.56;5028601;27;97549;-65
2023/08/15 01:03:52;;;;;;;3.67;1.23;;;;;;;26.20;82.40;101182.03;5031497;27;101946;-64
2023/08/15 01:06:19;;;;;;;6.38;1.40;;;;;;;25.91;83.42;101183.94;5028821;27;98866;-64
2023/08/15 01:08:45;;;;;;;5.20;1.38;;;;;;;25.99;82.36;101192.19;5029625;27;96929;-64
2023/08/15 01:11:12;;;;;;;3.45;1.40;;;;;;;25.83;82.89;101203.59;5031673;27;97801;-65
2023/08/15 01:13:44;;;;;;;3.55;1.42;;;;;;;25.89;83.71;101205.72;5030676;27;99532;-65
2023/08/15 01:16:15;;;;;;;3.70;1.80;;;;;;;25.93;83.49;101209.03;5028444;27;98806;-66
2023/08/15 01:18:52;;;;;;;2.45;1.58;;;;;;;25.94;83.55;101205.28;5029951;27;96939;-64
2023/08/15 01:21:25;;;;;;;4.50;1.98;;;;;;;26.18;81.88;101190.34;5027270;27;96963;-64
2023/08/15 01:23:54;;;;;;;2.67;1.63;;;;;;;26.15;82.70;101187.03;5027296;27;99013;-64
2023/08/15 01:26:20;;;;;;;2.58;1.63;;;;;;;25.92;83.29;101181.09;5024793;27;99607;-64
2023/08/15 01:28:47;;;;;;;4.05;1.80;;;;;;;25.85;84.32;101168.25;5027697;27;96788;-64
2023/08/15 01:31:18;;;;;;;3.20;1.73;;;;;;;25.89;83.48;101156.13;5027533;27;99053;-64
2023/08/15 01:33:53;;;;;;;3.03;1.50;;;;;;;25.68;84.52;101159.84;5029383;27;101291;-64
2023/08/15 01:36:25;;;;;;;3.60;1.67;;;;;;;25.80;83.78;101156.00;5028769;27;98847;-64
2023/08/15 01:38:57;;;;;;;2.13;1.50;;;;;;;25.84;83.53;101153.88;5029203;27;96949;-64
2023/08/15 01:41:25;;;;;;;5.68;1.35;;;;;;;25.69;83.29;101148.03;5028001;27;96790;-63
2023/08/15 01:43:53;;;;;;;3.58;1.40;;;;;;;25.72;84.02;101145.03;5025125;27;102039;-66
2023/08/15 01:46:19;;;;;;;3.50;1.67;;;;;;;25.71;83.71;101147.88;5029880;27;98853;-65
2023/08/15 01:48:46;;;;;;;2.45;1.55;;;;;;;25.73;83.59;101152.13;5025960;27;98613;-64
2023/08/15 01:51:12;;;;;;;2.03;1.00;;;;;;;25.69;83.52;101148.03;5027164;27;96859;-64
2023/08/15 01:53:39;;;;;;;2.40;1.42;;;;;;;25.75;83.10;101143.88;5028250;27;96944;-64
2023/08/15 01:56:07;;;;;;;2.08;1.00;;;;;;;25.96;82.59;101149.16;5025428;27;99034;-64
2023/08/15 01:58:33;;;;;;;2.42;1.30;;;;;;;26.03;81.71;101156.56;5020223;27;99063;-64
2023/08/15 02:01:02;;;;;;;3.25;1.45;;;;;;;25.94;82.09;101151.13;5026789;27;98717;-64
2023/08/15 02:03:28;;;;;;;2.95;1.45;;;;;;;25.92;82.12;101137.78;5028531;27;99424;-64
2023/08/15 02:05:55;;;;;;;3.10;1.60;;;;;;;25.89;82.06;101138.03;5026584;27;99778;-64
2023/08/15 02:08:22;;;;;;;2.80;1.40;;;;;;;25.94;82.59;101133.03;5026556;27;96976;-64
2023/08/15 02:10:49;;;;;;;3.88;1.50;;;;;;;25.98;82.12;101136.34;5024889;27;96879;-65
2023/08/15 02:13:17;;;;;;;1.98;1.67;;;;;;;25.82;82.65;101128.78;5027075;27;101402;-65
2023/08/15 02:15:43;;;;;;;3.08;1.58;;;;;;;26.12;82.07;101127.78;5028668;27;98873;-64
2023/08/15 02:18:10;;;;;;;1.77;1.30;;;;;;;25.86;83.64;101116.69;5029270;27;96810;-65
2023/08/15 02:20:37;;;;;;;7.57;1.92;;;;;;;25.78;83.38;101117.41;5027079;27;97214;-65
2023/08/15 02:23:03;;;;;;;2.10;1.45;;;;;;;25.84;83.63;101117.81;5027406;27;99423;-65
2023/08/15 02:25:30;;;;;;;2.53;1.75;;;;;;;25.53;84.58;101109.81;5025296;27;99069;-65
2023/08/15 02:27:56;;;;;;;5.57;1.60;;;;;;;26.03;82.68;101098.84;5021636;27;97812;-65
2023/08/15 02:30:24;;;;;;;2.63;1.75;;;;;;;25.99;82.36;101100.16;5027819;27;96956;-65
2023/08/15 02:32:50;;;;;;;6.18;1.90;;;;;;;26.06;82.19;101101.25;5024790;27;99030;-65
2023/08/15 02:35:17;;;;;;;5.28;1.85;;;;;;;25.70;84.52;101087.47;5028530;27;101001;-65
2023/08/15 02:37:44;;;;;;;3.38;1.90;;;;;;;25.97;82.86;101080.47;5019883;27;96998;-65
2023/08/15 02:40:11;;;;;;;1.88;1.77;;;;;;;25.88;83.68;101084.91;5025269;27;96985;-64
2023/08/15 02:42:37;;;;;;;2.90;1.80;;;;;;;25.80;84.01;101074.78;5024164;27;99828;-64
2023/08/15 02:45:04;;;;;;;4.75;2.03;;;;;;;25.52;85.16;101072.94;5026463;27;99206;-64
2023/08/15 02:47:32;;;;;;;4.10;2.05;;;;;;;25.69;84.52;101071.38;5026653;27;96826;-65
2023/08/15 02:49:59;;;;;;;2.90;1.90;;;;;;;25.56;85.22;101071.66;5024908;27;98219;-64
2023/08/15 02:52:25;;;;;;;3.10;1.83;;;;;;;25.68;84.36;101073.22;5026865;27;99247;-64
2023/08/15 02:54:51;;;;;;;3.90;2.42;;;;;;;25.92;83.16;101063.81;5023541;27;100597;-64
2023/08/15 02:57:18;;;;;;;4.65;2.28;;;;;;;25.65;84.29;101076.25;5025647;27;98057;-64
2023/08/15 02:59:44;;;;;;;4.05;2.00;;;;;;;25.52;85.26;101072.94;5021760;27;97197;-65
2023/08/15 03:02:11;;;;;;;2.90;1.60;;;;;;;25.65;84.30;101070.84;5024749;27;99294;-65
2023/08/15 03:04:38;;;;;;;2.78;2.30;;;;;;;25.50;85.25;101072.22;5024462;27;98837;-65
2023/08/15 03:07:05;;;;;;;3.15;2.10;;;;;;;25.34;86.41;101071.91;5025557;27;98073;-65
2023/08/15 03:09:31;;;;;;;6.32;2.30;;;;;;;25.45;85.51;101063.69;5021959;27;96903;-65
2023/08/15 03:11:58;;;;;;;4.47;2.30;;;;;;;25.49;84.69;101062.38;5023763;27;99255;-65
2023/08/15 03:14:24;;;;;;;5.25;2.72;;;;;;;25.25;86.13;101078.19;5025300;27;97788;-65
2023/08/15 03:16:51;;;;;;;2.90;2.25;;;;;;;24.97;87.00;101080.69;5026228;27;96823;-65
2023/08/15 03:19:17;;;;;;;3.45;2.83;;;;;;;25.07;86.73;101083.44;5028372;27;98733;-65
2023/08/15 03:21:45;;;;;;;2.63;2.38;;;;;;;25.01;86.82;101092.06;5025044;27;99158;-64
2023/08/15 03:24:11;;;;;;;4.90;2.72;;;;;;;25.23;85.94;101093.69;5023612;27;98905;-66
2023/08/15 03:26:38;;;;;;;3.22;2.22;;;;;;;25.26;85.22;101097.00;5017394;27;96923;-65
2023/08/15 03:29:05;;;;;;;2.80;2.60;;;;;;;25.14;86.37;101108.06;5023333;27;96811;-64
2023/08/15 03:31:34;;;;;;;3.92;2.92;;;;;;;25.25;85.88;101107.94;5027046;27;100361;-65
2023/08/15 03:34:01;;;;;;;4.15;2.90;;;;;;;25.19;86.21;101113.91;5023892;27;99828;-64
2023/08/15 03:36:27;;;;;;;3.03;2.60;;;;;;;25.40;84.65;101114.66;5026500;27;98898;-64
2023/08/15 03:38:55;;;;;;;6.43;2.80;;;;;;;25.59;84.06;101119.25;5028090;27;97134;-64
2023/08/15 03:41:22;;;;;;;4.32;3.03;;;;;;;25.49;84.60;101124.63;5026221;27;96777;-64
2023/08/15 03:43:48;;;;;;;4.45;2.63;;;;;;;25.28;85.51;101124.72;5023030;27;98845;-63
2023/08/15 03:46:14;;;;;;;9.23;3.33;;;;;;;25.21;85.45;101128.97;5024796;27;96898;-63
2023/08/15 03:48:41;;;;;;;3.70;3.15;;;;;;;24.89;87.07;101129.19;5027415;27;96833;-64
2023/08/15 03:51:08;;;;;;;4.75;2.70;;;;;;;25.07;86.21;101131.25;5027024;27;98251;-64
2023/08/15 03:53:34;;;;;;;4.07;3.10;;;;;;;25.17;85.57;101140.22;5026160;27;100724;-64
2023/08/15 03:56:02;;;;;;;4.32;2.63;;;;;;;25.11;86.16;101140.78;5025610;27;96845;-64
2023/08/15 03:58:28;;;;;;;4.38;2.53;;;;;;;25.11;85.72;101147.03;5025594;27;96843;-65
2023/08/15 04:00:55;;;;;;;4.10;2.92;;;;;;;25.15;86.32;101144.91;5028470;27;98776;-64
2023/08/15 04:03:22;;;;;;;3.50;2.72;;;;;;;25.11;86.38;101157.88;5028165;27;99313;-63
2023/08/15 04:05:49;;;;;;;6.32;3.38;;;;;;;24.97;87.12;101160.94;5028904;27;97146;-64
2023/08/15 04:08:16;;;;;;;3.35;2.97;;;;;;;24.97;87.01;101161.81;5028904;27;96863;-66
2023/08/15 04:10:45;;;;;;;3.80;3.25;;;;;;;25.09;87.06;101170.66;5030709;27;98336;-65
2023/08/15 04:13:14;;;;;;;5.18;3.72;;;;;;;25.14;87.20;101178.38;5025208;27;98898;-64
2023/08/15 04:15:41;;;;;;;4.65;3.28;;;;;;;25.06;87.50;101180.91;5026644;27;96785;-63
2023/08/15 04:18:08;;;;;;;5.78;3.60;;;;;;;25.04;88.03;101182.88;5032216;27;96799;-64
2023/08/15 04:20:36;;;;;;;4.90;3.60;;;;;;;25.06;88.17;101181.75;5029159;27;101304;-65
2023/08/15 04:23:02;;;;;;;4.50;3.40;;;;;;;25.22;87.40;101195.59;5030350;27;98824;-64
2023/08/15 04:25:29;;;;;;;8.48;4.35;;;;;;;25.24;87.19;101190.06;5025961;27;96982;-63
2023/08/15 04:27:55;;;;;;;5.75;4.80;;;;;;;25.37;86.35;101190.66;5027452;27;100775;-64
2023/08/15 04:30:23;;;;;;;8.23;5.53;;;;;;;25.28;86.79;101195.03;5026686;27;99480;-63
2023/08/15 04:32:50;;;;;;;11.02;5.63;;;;;;;25.23;86.61;101189.22;5029325;27;98870;-64
2023/08/15 04:35:16;;;;;;;9.60;6.38;;;;;;;25.25;86.69;101192.63;5029011;27;97466;-64
2023/08/15 04:37:43;;;;;;;7.18;5.78;;;;;;;25.13;87.71;101192.88;5027114;27;98508;-64
2023/08/15 04:40:12;;;;;;;8.07;5.55;;;;;;;25.45;85.60;101190.84;5029302;27;98789;-64
2023/08/15 04:42:39;;;;;;;6.03;5.40;;;;;;;25.33;87.14;101194.66;5027787;27;99131;-64
2023/08/15 04:45:06;;;;;;;9.15;5.00;;;;;;;25.48;86.49;101195.94;5027450;27;101723;-65
2023/08/15 04:47:34;;;;;;;10.30;5.07;;;;;;;25.69;84.73;101196.72;5023851;27;97585;-65
2023/08/15 04:50:01;;;;;;;7.78;5.80;;;;;;;25.76;84.12;101186.19;5027683;27;99219;-64
2023/08/15 04:52:27;;;;;;;8.77;5.63;;;;;;;25.62;84.83;101200.13;5025007;27;99672;-64
2023/08/15 04:54:53;;;;;;;7.72;4.97;;;;;;;25.55;84.78;101186.28;5026848;27;98878;-64
2023/08/15 04:57:20;;;;;;;6.28;5.28;;;;;;;25.77;84.29;101188.78;5025167;27;97783;-64
2023/08/15 04:59:46;;;;;;;9.50;4.40;;;;;;;25.69;84.11;101188.63;5025255;27;101065;-64
2023/08/15 05:02:13;;;;;;;6.93;5.13;;;;;;;25.81;83.55;101197.44;5028829;27;99965;-64
2023/08/15 05:04:41;;;;;;;8.88;5.63;;;;;;;25.70;84.16;101192.19;5027367;27;97415;-64
2023/08/15 05:07:07;;;;;;;7.82;4.80;;;;;;;25.66;83.85;101191.63;5030275;27;101268;-64
2023/08/15 05:09:33;;;;;;;7.82;4.97;;;;;;;25.67;84.46;101196.00;5028525;27;98821;-64
2023/08/15 05:12:00;;;;;;;9.43;5.18;;;;;;;25.77;83.85;101194.19;5029708;27;100675;-64
2023/08/15 05:14:26;;;;;;;7.28;4.68;;;;;;;25.77;83.72;101204.16;5028544;27;96813;-65
2023/08/15 05:16:53;;;;;;;5.93;4.63;;;;;;;25.79;82.96;101205.72;5028555;27;97568;-65
2023/08/15 05:19:20;;;;;;;8.32;4.30;;;;;;;25.72;83.90;101201.88;5031334;27;101407;-64
2023/08/15 05:21:47;;;;;;;7.75;4.80;;;;;;;25.83;83.16;101202.72;5026532;27;97796;-63
2023/08/15 05:24:14;;;;;;;6.05;4.70;;;;;;;26.01;82.26;101201.00;5023343;27;98279;-64
2023/08/15 05:26:40;;;;;;;5.18;4.10;;;;;;;26.17;81.77;101207.59;5028841;27;96891;-64
2023/08/15 05:29:07;;;;;;;8.05;5.18;;;;;;;26.27;81.47;101199.47;5029637;27;101019;-64
2023/08/15 05:31:33;;;;;;;9.68;5.00;;;;;;;26.27;81.76;101204.88;5031268;27;101990;-64
2023/08/15 05:33:59;;;;;;;5.00;4.35;;;;;;;26.27;81.01;101202.16;5028407;27;96867;-63
2023/08/15 05:36:26;;;;;;;7.57;4.53;;;;;;;26.40;80.05;101208.13;5027655;27;97930;-63
2023/08/15 05:38:53;;;;;;;6.97;4.28;;;;;;;26.55;79.68;101206.69;5025481;27;98850;-63
2023/08/15 05:41:20;;;;;;;8.75;4.47;;;;;;;26.41;79.38;101209.00;5031128;27;100622;-64
2023/08/15 05:43:46;;;;;;;9.20;4.32;;;;;;;26.38;79.49;101215.56;5030915;27;97840;-64
2023/08/15 05:46:12;;;;;;;4.25;3.85;;;;;;;26.38;79.29;101218.28;5026953;27;97635;-64
2023/08/15 05:48:39;;;;;;;8.32;4.72;;;;;;;26.61;78.49;101215.22;5027960;27;99362;-64
2023/08/15 05:51:05;;;;;;;6.97;3.83;;;;;;;26.58;78.42;101214.50;5027130;27;98849;-65
2023/08/15 05:53:31;;;;;;;9.02;3.80;;;;;;;26.62;78.50;101225.06;5030669;27;97578;-65
2023/08/15 05:56:03;;;;;;;8.73;3.70;;;;;;;26.68;78.22;101222.63;5028424;27;97380;-65
2023/08/15 05:58:29;;;;;;;5.78;3.85;;;;;;;26.81;78.28;101225.88;5028832;27;101627;-65
2023/08/15 06:00:55;;;;;;;10.13;3.90;;;;;;;26.95;76.82;101221.88;5030055;27;99363;-66
2023/08/15 06:03:22;;;;;;;9.77;4.07;;;;;;;27.14;76.37;101224.50;5025628;27;96753;-64
2023/08/15 06:05:48;;;;;;;5.28;3.92;;;;;;;27.35;75.71;101233.25;5027970;27;97089;-65
2023/08/15 06:08:15;;;;;;;6.47;3.67;;;;;;;27.03;76.47;101230.13;5025140;27;98932;-65
2023/08/15 06:10:41;;;;;;;6.30;3.80;;;;;;;27.20;76.32;101217.63;5024778;27;99279;-65
2023/08/15 06:13:08;;;;;;;5.43;3.95;;;;;;;27.44;75.18;101220.63;5028176;27;97175;-65
2023/08/15 06:15:35;;;;;;;7.50;4.18;;;;;;;27.47;75.86;101224.91;5025256;27;97423;-65
2023/08/15 06:18:01;;;;;;;6.97;3.63;;;;;;;27.87;74.15;101230.81;5025655;27;99010;-64
2023/08/15 06:20:28;;;;;;;6.07;4.13;;;;;;;27.96;73.26;101219.00;5025498;27;101090;-64
2023/08/15 06:22:55;;;;;;;7.10;4.10;;;;;;;28.27;71.27;101221.34;5028082;27;96909;-65
2023/08/15 06:25:21;;;;;;;5.40;3.92;;;;;;;28.09;71.53;101221.34;5026915;27;99193;-65
2023/08/15 06:27:48;;;;;;;5.53;3.65;;;;;;;28.07;71.79;101220.63;5021925;27;98875;-65
2023/08/15 06:30:15;;;;;;;5.72;3.30;;;;;;;27.96;71.19;101208.13;5016349;27;100845;-63
2023/08/15 06:32:42;;;;;;;6.00;3.17;;;;;;;27.86;71.45;101215.50;5019659;27;98018;-63
2023/08/15 06:35:09;;;;;;;5.78;2.83;;;;;;;27.97;71.10;101201.69;5020052;27;97287;-63
2023/08/15 06:37:35;;;;;;;4.53;2.78;;;;;;;27.94;71.33;101212.88;5019847;27;98900;-63
2023/08/15 06:40:03;;;;;;;9.32;3.33;;;;;;;28.11;70.30;101201.16;5022481;27;99418;-63
2023/08/15 06:42:29;;;;;;;6.43;2.67;;;;;;;27.90;70.51;101221.47;5025034;27;97806;-63
2023/08/15 06:45:03;;;;;;;8.32;3.00;;;;;;;28.19;69.51;101211.25;5022549;27;97648;-63
2023/08/15 06:47:31;;;;;;;5.13;3.13;;;;;;;28.09;70.08;101216.75;5017075;27;99496;-65
2023/08/15 06:49:57;;;;;;;4.40;2.67;;;;;;;28.33;69.00;101231.59;5022479;27;97723;-65
2023/08/15 06:52:24;;;;;;;5.22;2.85;;;;;;;28.71;68.22;101242.06;5027092;27;99091;-65
2023/08/15 06:54:50;;;;;;;3.70;2.83;;;;;;;28.27;68.64;101234.94;5021453;27;98810;-65
2023/08/15 06:57:16;;;;;;;4.30;2.90;;;;;;;28.47;69.44;101228.31;5021604;27;100065;-65
2023/08/15 06:59:43;;;;;;;3.20;2.88;;;;;;;28.80;68.66;101224.84;5024231;27;98970;-65
2023/08/15 07:02:10;;;;;;;4.90;3.33;;;;;;;28.91;67.99;101218.25;5024549;27;97478;-64
2023/08/15 07:04:40;;;;;;;5.10;2.90;;;;;;;29.13;68.22;101227.72;5025169;27;100947;-65
2023/08/15 07:07:07;;;;;;;5.45;3.63;;;;;;;29.79;64.89;101213.34;5023348;27;98314;-64
2023/08/15 07:09:35;;;;;;;6.50;2.90;;;;;;;29.78;65.61;101215.22;5021862;27;97649;-65
2023/08/15 07:12:01;;;;;;;6.25;3.00;;;;;;;29.64;65.64;101227.59;5023852;27;97447;-65
2023/08/15 07:14:28;;;;;;;6.05;3.55;;;;;;;29.55;64.50;101219.56;5016217;27;97693;-64
2023/08/15 07:16:54;;;;;;;12.93;3.17;;;;;;;29.34;65.17;101222.75;5017720;27;99033;-64
2023/08/15 07:19:21;;;;;;;5.65;3.58;;;;;;;29.70;64.54;101216.03;5027420;27;98801;-64
2023/08/15 07:21:48;;;;;;;4.85;2.90;;;;;;;29.67;63.25;101210.91;5023621;27;97375;-64
2023/08/15 07:24:15;;;;;;;7.25;2.90;;;;;;;29.82;63.40;101208.41;5022903;27;97333;-64
2023/08/15 07:26:41;;;;;;;6.72;2.75;;;;;;;29.87;65.04;101218.78;5019739;27;99392;-65
2023/08/15 07:29:08;;;;;;;7.05;2.95;;;;;;;30.27;62.28;101212.53;5017855;27;99583;-65
2023/08/15 07:31:34;;;;;;;5.78;2.47;;;;;;;30.67;60.68;101214.41;5020734;27;97195;-64
2023/08/15 07:34:00;;;;;;;7.45;2.60;;;;;;;30.68;59.71;101227.88;5026783;27;96968;-63
2023/08/15 07:36:27;;;;;;;7.38;2.53;;;;;;;30.44;61.78;101220.56;5026334;27;98913;-64
2023/08/15 07:38:56;;;;;;;8.10;2.95;;;;;;;30.43;61.01;101223.44;5022191;27;97548;-63
2023/08/15 07:41:22;;;;;;;8.07;2.55;;;;;;;30.67;60.49;101217.97;5025973;27;98106;-64
2023/08/15 07:43:48;;;;;;;4.10;2.63;;;;;;;30.65;61.12;101211.03;5025553;27;97058;-63
2023/08/15 07:46:15;;;;;;;10.70;2.95;;;;;;;31.10;59.75;101216.72;5024773;27;97778;-64
2023/08/15 07:48:42;;;;;;;10.70;3.53;;;;;;;31.35;58.66;101216.59;5023981;27;99356;-64
2023/08/15 07:51:09;;;;;;;7.38;2.83;;;;;;;31.21;59.50;101208.13;5018708;27;96912;-64
2023/08/15 07:53:35;;;;;;;6.40;2.80;;;;;;;30.95;59.81;101217.56;5028617;27;97858;-63
2023/08/15 07:56:03;;;;;;;5.40;2.90;;;;;;;31.07;58.92;101217.06;5023134;27;98271;-64
2023/08/15 07:58:31;;;;;;;4.65;2.85;;;;;;;31.18;59.36;101213.94;5024124;27;98774;-64
2023/08/15 08:00:58;;;;;;;3.22;2.40;;;;;;;31.16;58.13;101218.75;5021999;27;96894;-64
2023/08/15 08:03:24;;;;;;;3.90;2.50;;;;;;;31.03;58.11;101218.41;5012792;27;97926;-64
2023/08/15 08:05:51;;;;;;;7.32;2.70;;;;;;;31.49;57.16;101218.59;5019012;27;99796;-63
2023/08/15 08:08:17;;;;;;;8.15;3.15;;;;;;;31.61;56.26;101226.22;5023022;27;98083;-64
2023/08/15 08:10:44;;;;;;;8.32;2.92;;;;;;;31.44;56.53;101231.94;5017172;27;97744;-64
2023/08/15 08:13:12;;;;;;;3.33;2.50;;;;;;;31.65;56.19;101232.16;5019102;27;97267;-63
2023/08/15 08:15:38;;;;;;;7.05;2.67;;;;;;;31.89;57.00;101226.56;5019731;27;97832;-64
2023/08/15 08:18:05;;;;;;;11.13;3.42;;;;;;;31.93;56.24;101225.16;5022246;27;97533;-63
2023/08/15 08:20:32;;;;;;;4.43;2.80;;;;;;;31.94;55.71;101235.06;5020607;27;98004;-63
2023/08/15 08:22:58;;;;;;;4.82;2.65;;;;;;;31.73;57.02;101240.31;5025063;27;97436;-64
2023/08/15 08:25:25;;;;;;;6.63;3.10;;;;;;;31.78;57.71;101248.81;5019424;27;99012;-63
2023/08/15 08:27:51;;;;;;;8.00;2.78;;;;;;;31.76;56.03;101250.91;5012476;27;99310;-63
2023/08/15 08:30:21;;;;;;;6.50;2.55;;;;;;;31.93;56.56;101241.56;5014914;27;96930;-63
2023/08/15 08:32:48;;;;;;;6.10;2.80;;;;;;;31.88;55.42;101233.06;5019380;27;96824;-63
2023/08/15 08:35:15;;;;;;;5.25;2.95;;;;;;;31.71;56.39;101241.53;5022993;27;99415;-63
2023/08/15 08:37:42;;;;;;;4.47;2.60;;;;;;;32.33;55.85;101236.84;5022534;27;99339;-63
2023/08/15 08:40:12;;;;;;;5.13;2.97;;;;;;;32.33;56.61;101245.03;5027124;27;97614;-63
2023/08/15 08:42:40;;;;;;;4.53;2.85;;;;;;;32.15;55.61;101253.56;5024522;27;96880;-63
2023/08/15 08:45:09;;;;;;;5.50;3.05;;;;;;;32.27;56.00;101248.50;5023970;27;99990;-66
2023/08/15 08:47:39;;;;;;;5.28;3.30;;;;;;;32.17;56.45;101239.69;5019066;27;99233;-64
2023/08/15 08:50:09;;;;;;;4.38;2.95;;;;;;;32.39;54.57;101247.03;5011117;27;97621;-65
2023/08/15 08:52:36;;;;;;;6.50;2.97;;;;;;;32.75;53.52;101248.09;5027187;27;97253;-64
2023/08/15 08:55:02;;;;;;;6.30;2.90;;;;;;;32.38;55.23;101262.59;5019993;27;99100;-64
2023/08/15 08:57:34;;;;;;;10.45;3.42;;;;;;;32.61;53.39;101262.56;5021223;27;98880;-65
2023/08/15 09:00:01;;;;;;;12.82;3.15;;;;;;;32.54;55.34;101272.56;5021444;27;96813;-65
2023/08/15 09:02:28;;;;;;;6.10;3.30;;;;;;;32.56;55.38;101272.38;5022420;27;98569;-65
2023/08/15 09:04:56;;;;;;;6.22;3.33;;;;;;;32.55;54.14;101279.72;5021742;27;99181;-64
2023/08/15 09:07:22;;;;;;;5.32;3.90;;;;;;;32.35;54.63;101275.81;5020608;27;100619;-65
2023/08/15 09:09:49;;;;;;;8.45;3.40;;;;;;;32.70;54.52;101275.16;5024054;27;98973;-64
2023/08/15 09:12:33;;;;;;;3.97;3.42;;;;;;;32.38;54.27;101281.75;5022117;27;98754;-64
2023/08/15 09:15:00;;;;;;;7.25;3.60;;;;;;;32.44;54.89;101271.94;5024093;27;98869;-63
2023/08/15 09:17:26;;;;;;;6.00;3.90;;;;;;;32.73;53.88;101266.59;5019379;27;99378;-63
2023/08/15 09:19:53;;;;;;;5.25;3.50;;;;;;;32.70;53.01;101263.34;5024946;27;97583;-64
2023/08/15 09:22:25;;;;;;;4.47;3.80;;;;;;;33.00;52.35;101261.53;5024589;27;98004;-64
2023/08/15 09:24:52;;;;;;;7.85;3.88;;;;;;;32.98;52.81;101261.69;5026035;27;101946;-63
2023/08/15 09:27:18;;;;;;;8.23;4.13;;;;;;;33.15;52.04;101256.88;5023567;27;99146;-64
2023/08/15 09:29:45;;;;;;;7.40;4.28;;;;;;;32.92;52.62;101269.81;5022652;27;99408;-64
2023/08/15 09:32:12;;;;;;;7.07;4.18;;;;;;;32.36;56.04;101274.78;5027403;27;97274;-63
2023/08/15 09:34:39;;;;;;;10.90;4.50;;;;;;;32.50;54.98;101257.53;5025964;27;99465;-63
2023/08/15 09:37:05;;;;;;;6.20;4.10;;;;;;;32.51;54.00;101251.03;5024193;27;98837;-63
2023/08/15 09:39:36;;;;;;;9.25;4.28;;;;;;;32.59;54.45;101245.50;5023375;27;96945;-63
2023/08/15 09:42:02;;;;;;;9.45;4.07;;;;;;;32.57;53.83;101239.34;5030069;27;96827;-64
2023/08/15 09:44:34;;;;;;;7.15;4.13;;;;;;;32.59;54.56;101250.97;5022001;27;97914;-63
2023/08/15 09:47:01;;;;;;;7.15;4.55;;;;;;;32.49;54.69;101264.06;5025218;27;97566;-63
2023/08/15 09:49:29;;;;;;;5.20;4.35;;;;;;;32.32;56.45;101267.94;5025919;27;96885;-63
2023/08/15 09:51:58;;;;;;;5.65;4.40;;;;;;;32.36;55.64;101266.56;5026144;27;97858;-64
2023/08/15 09:54:26;;;;;;;6.53;3.88;;;;;;;32.76;54.96;101255.25;5020546;27;98978;-63
2023/08/15 09:56:54;;;;;;;6.43;4.53;;;;;;;33.05;54.58;101251.69;5020190;27;98899;-64
2023/08/15 09:59:20;;;;;;;9.73;4.45;;;;;;;33.10;54.16;101248.38;5019547;27;97763;-67
2023/08/15 10:01:48;;;;;;;6.53;4.40;;;;;;;33.14;54.00;101239.63;5023431;27;98948;-63
2023/08/15 10:04:16;;;;;;;8.38;4.53;;;;;;;33.04;53.90;101240.94;5021744;27;99240;-63
2023/08/15 10:06:43;;;;;;;7.18;4.40;;;;;;;33.21;53.45;101242.50;5020728;27;101753;-65
2023/08/15 10:09:11;;;;;;;7.43;5.05;;;;;;;32.90;55.09;101236.31;5025983;27;98898;-65
2023/08/15 10:11:44;;;;;;;7.60;5.30;;;;;;;33.01;53.06;101246.81;5022478;27;99245;-63
2023/08/15 10:14:14;;;;;;;7.10;4.80;;;;;;;33.17;52.86;101238.38;5022755;27;98152;-65
2023/08/15 10:16:41;;;;;;;8.40;4.85;;;;;;;32.89;54.95;101240.06;5026954;27;98878;-65
2023/08/15 10:19:10;;;;;;;6.55;4.70;;;;;;;33.02;54.67;101243.84;5027414;27;98672;-67
2023/08/15 10:21:47;;;;;;;6.30;4.20;;;;;;;32.89;53.00;101226.38;5025594;27;101517;-65
2023/08/15 10:24:14;;;;;;;5.95;4.35;;;;;;;33.06;53.39;101216.97;5026890;27;98978;-64
2023/08/15 10:26:41;;;;;;;7.50;4.60;;;;;;;32.83;53.17;101196.00;5026929;27;99004;-66
2023/08/15 10:29:07;;;;;;;4.88;4.35;;;;;;;32.70;54.07;101198.53;5025773;27;97595;-64
2023/08/15 10:31:36;;;;;;;5.25;4.70;;;;;;;32.74;54.46;101199.88;5026946;27;96968;-64
2023/08/15 10:34:03;;;;;;;8.68;4.88;;;;;;;32.68;56.47;101197.06;5021160;27;98922;-63
2023/08/15 10:36:30;;;;;;;6.07;4.95;;;;;;;32.61;58.11;101193.31;5018837;27;101691;-64
2023/08/15 10:38:56;;;;;;;6.20;4.88;;;;;;;32.77;54.77;101183.06;5024516;27;97514;-64
2023/08/15 10:41:23;;;;;;;11.45;6.40;;;;;;;33.07;55.65;101185.81;5021456;27;97464;-65
2023/08/15 10:43:51;;;;;;;12.07;6.43;;;;;;;32.74;58.99;101179.88;5023152;27;100451;-63
2023/08/15 10:46:19;;;;;;;8.23;5.97;;;;;;;33.06;56.55;101171.28;5023107;27;98792;-64
2023/08/15 10:48:49;;;;;;;11.55;6.82;;;;;;;32.97;56.89;101177.03;5024999;27;96840;-63
2023/08/15 10:51:18;;;;;;;9.70;6.80;;;;;;;33.28;55.12;101183.16;5023861;27;98333;-63
2023/08/15 10:53:44;;;;;;;10.10;6.43;;;;;;;33.15;55.44;101174.72;5017784;27;101508;-63
2023/08/15 10:56:12;;;;;;;9.85;5.55;;;;;;;32.91;53.29;101184.13;5021144;27;96859;-63
2023/08/15 10:58:39;;;;;;;8.43;5.53;;;;;;;33.17;52.60;101189.09;5019928;27;98926;-65
2023/08/15 11:01:05;;;;;;;7.68;5.03;;;;;;;33.30;52.71;101196.66;5022543;27;96866;-63
2023/08/15 11:03:32;;;;;;;7.55;4.57;;;;;;;33.09;51.95;101211.09;5024887;27;98328;-64
2023/08/15 11:06:08;;;;;;;8.70;5.30;;;;;;;32.97;53.55;101204.41;5027442;27;99692;-64
2023/08/15 11:08:34;;;;;;;5.43;4.53;;;;;;;32.86;52.72;101205.72;5022569;27;97454;-65
2023/08/15 11:11:01;;;;;;;6.75;5.70;;;;;;;33.27;51.70;101208.88;5023393;27;97369;-64
2023/08/15 11:13:27;;;;;;;7.50;5.03;;;;;;;33.23;50.65;101207.53;5023925;27;98872;-63
2023/08/15 11:15:54;;;;;;;6.47;4.50;;;;;;;33.10;50.73;101210.91;5021679;27;98843;-64
2023/08/15 11:18:22;;;;;;;7.75;5.03;;;;;;;33.12;50.41;101211.59;5024163;27;98989;-64
2023/08/15 11:20:49;;;;;;;5.65;4.68;;;;;;;33.57;50.13;101207.75;5017032;27;98347;-64
2023/08/15 11:23:16;;;;;;;8.77;5.03;;;;;;;33.31;51.31;101207.44;5021181;27;99158;-63